Time;durP1;ratioP1;P1;durP2;ratioP2;P2;SDS_P1;SDS_P2;PMS_P1;PMS_P2;Temp;Humidity;BMP_temperature;BMP_pressure;BME280_temperature;BME280_humidity;BME280_pressure;Samples;Min_cycle;Max_cycle;Signal;HPM_P1;HPM_P2
2022/08/11 00:00:51;;;;;;;22.67;12.57;;;;;;;;;;5062994;28;20369;-71
2022/08/11 00:03:18;;;;;;;28.65;15.20;;;;;;;;;;5056791;28;20089;-72
2022/08/11 00:05:45;;;;;;;32.10;15.35;;;;;;;;;;5073817;28;20595;-73
2022/08/11 00:08:20;;;;;;;32.35;16.98;;;;;;;;;;5063130;28;20535;-72
2022/08/11 00:10:51;;;;;;;26.33;14.48;;;;;;;;;;5078902;28;20591;-73
2022/08/11 00:13:17;;;;;;;31.88;16.75;;;;;;;;;;5081620;28;20500;-76
2022/08/11 00:15:46;;;;;;;28.55;15.82;;;;;;;;;;5085616;28;20129;-72
2022/08/11 00:18:13;;;;;;;25.67;14.93;;;;;;;;;;5065797;28;20028;-71
2022/08/11 00:20:41;;;;;;;25.38;13.35;;;;;;;;;;5069077;28;20025;-73
2022/08/11 00:23:11;;;;;;;24.00;13.93;;;;;;;;;;5067854;28;20036;-73
2022/08/11 00:25:41;;;;;;;31.60;13.90;;;;;;;;;;5056468;28;20036;-72
2022/08/11 00:28:26;;;;;;;25.80;13.27;;;;;;;;;;5069209;28;20032;-70
2022/08/11 00:30:52;;;;;;;21.08;11.45;;;;;;;;;;5056567;28;20036;-76
2022/08/11 00:33:20;;;;;;;20.27;11.95;;;;;;;;;;5070287;28;20068;-71
2022/08/11 00:35:46;;;;;;;20.80;11.00;;;;;;;;;;5057664;28;20036;-71
2022/08/11 00:38:13;;;;;;;24.92;11.23;;;;;;;;;;5057562;28;20017;-75
2022/08/11 00:40:52;;;;;;;20.08;12.00;;;;;;;;;;5075751;28;20056;-71
2022/08/11 00:43:21;;;;;;;16.98;10.40;;;;;;;;;;5071409;28;20040;-74
2022/08/11 00:46:11;;;;;;;16.17;10.57;;;;;;;;;;5063296;28;20081;-71
2022/08/11 00:48:47;;;;;;;18.48;10.50;;;;;;;;;;4974052;28;20035;-75
2022/08/11 00:51:22;;;;;;;18.63;10.95;;;;;;;;;;4969652;28;20054;-72
2022/08/11 00:53:49;;;;;;;18.83;10.43;;;;;;;;;;4975840;28;20121;-72
2022/08/11 00:56:17;;;;;;;20.85;10.63;;;;;;;;;;4951865;28;20034;-71
2022/08/11 00:58:49;;;;;;;18.05;10.02;;;;;;;;;;4980640;28;20041;-71
2022/08/11 01:01:15;;;;;;;18.90;11.13;;;;;;;;;;4973597;28;20026;-72
2022/08/11 01:04:00;;;;;;;18.30;10.98;;;;;;;;;;4968780;28;20037;-71
2022/08/11 01:06:29;;;;;;;20.08;10.68;;;;;;;;;;4976192;28;20049;-71
2022/08/11 01:09:14;;;;;;;23.83;11.15;;;;;;;;;;4978703;28;20038;-72
2022/08/11 01:11:40;;;;;;;18.15;10.48;;;;;;;;;;4977736;28;20042;-70
2022/08/11 01:14:06;;;;;;;20.67;10.25;;;;;;;;;;4975260;28;20057;-70
2022/08/11 01:16:40;;;;;;;20.88;11.10;;;;;;;;;;4978210;28;20031;-71
2022/08/11 01:19:26;;;;;;;25.25;12.05;;;;;;;;;;4978379;28;20035;-71
2022/08/11 01:21:52;;;;;;;27.25;13.05;;;;;;;;;;4980250;28;20094;-72
2022/08/11 01:24:36;;;;;;;32.38;14.57;;;;;;;;;;4980501;28;20058;-71
2022/08/11 01:27:18;;;;;;;30.10;13.90;;;;;;;;;;5068971;28;20039;-71
2022/08/11 01:29:53;;;;;;;29.83;14.50;;;;;;;;;;5071974;28;20021;-72
2022/08/11 01:32:45;;;;;;;32.60;13.90;;;;;;;;;;5070263;28;20047;-70
2022/08/11 01:35:30;;;;;;;32.83;15.18;;;;;;;;;;5077042;28;20086;-70
2022/08/11 01:38:08;;;;;;;33.08;16.38;;;;;;;;;;5079016;28;20028;-70
2022/08/11 01:40:34;;;;;;;29.25;15.43;;;;;;;;;;5069643;28;20393;-70
2022/08/11 01:46:20;;;;;;;27.75;13.32;;;;;;;;;;5063611;28;20040;-73
2022/08/11 01:48:49;;;;;;;29.17;13.20;;;;;;;;;;5077542;28;20090;-70
2022/08/11 01:51:32;;;;;;;22.50;12.05;;;;;;;;;;5074967;28;20098;-71
2022/08/11 01:54:01;;;;;;;20.63;11.50;;;;;;;;;;5084547;28;20112;-72
2022/08/11 01:56:55;;;;;;;19.77;11.35;;;;;;;;;;5068714;28;20091;-72
2022/08/11 01:59:26;;;;;;;20.73;10.05;;;;;;;;;;5062813;28;20024;-71
2022/08/11 02:01:53;;;;;;;17.88;10.05;;;;;;;;;;5061402;28;20017;-71
2022/08/11 02:04:45;;;;;;;20.48;10.13;;;;;;;;;;5062260;28;20020;-72
2022/08/11 02:07:11;;;;;;;19.92;10.05;;;;;;;;;;5016360;28;20192;-71
2022/08/11 02:09:43;;;;;;;19.23;10.75;;;;;;;;;;5020847;28;20042;-72
2022/08/11 02:12:29;;;;;;;20.02;10.98;;;;;;;;;;5022071;28;20129;-73
2022/08/11 02:15:16;;;;;;;24.35;11.75;;;;;;;;;;5023601;28;20038;-72
2022/08/11 02:18:20;;;;;;;21.52;11.38;;;;;;;;;;4981814;28;20053;-74
2022/08/11 02:23:50;;;;;;;20.42;11.02;;;;;;;;;;4971751;29;20103;-70
2022/08/11 02:26:22;;;;;;;23.25;12.52;;;;;;;;;;4972378;28;20103;-71
2022/08/11 02:29:06;;;;;;;21.70;11.40;;;;;;;;;;4969788;29;20062;-70
2022/08/11 02:34:38;;;;;;;21.42;11.25;;;;;;;;;;4970656;28;20042;-70
2022/08/11 02:37:14;;;;;;;21.95;11.05;;;;;;;;;;4971125;28;20035;-71
2022/08/11 02:39:46;;;;;;;17.63;9.63;;;;;;;;;;4971304;29;20035;-70
2022/08/11 02:42:38;;;;;;;15.00;9.63;;;;;;;;;;4967497;29;20094;-72
2022/08/11 02:45:23;;;;;;;17.15;9.50;;;;;;;;;;4966622;28;20066;-71
2022/08/11 02:51:04;;;;;;;16.35;9.07;;;;;;;;;;4988740;28;20077;-71
2022/08/11 02:53:35;;;;;;;16.35;8.40;;;;;;;;;;5017230;28;20117;-71
2022/08/11 02:56:13;;;;;;;16.33;8.02;;;;;;;;;;5076676;28;20021;-77
2022/08/11 03:02:06;;;;;;;12.73;7.32;;;;;;;;;;5012953;28;20114;-76
2022/08/11 03:04:50;;;;;;;13.00;7.25;;;;;;;;;;5001062;28;20046;-71
2022/08/11 03:07:16;;;;;;;;;;;;;;;;;;4991516;28;20026;-71
2022/08/11 03:09:45;;;;;;;11.38;6.95;;;;;;;;;;4993742;28;19929;-70
2022/08/11 03:18:17;;;;;;;12.27;6.63;;;;;;;;;;4935043;29;20123;-71
2022/08/11 03:20:51;;;;;;;10.38;6.35;;;;;;;;;;4935175;29;20063;-72
2022/08/11 03:23:35;;;;;;;13.23;6.68;;;;;;;;;;4934625;29;20455;-70
2022/08/11 03:26:07;;;;;;;15.68;7.13;;;;;;;;;;4934622;29;20031;-73
2022/08/11 03:28:42;;;;;;;11.52;6.45;;;;;;;;;;4934741;29;20039;-72
2022/08/11 03:31:15;;;;;;;13.55;6.05;;;;;;;;;;4932954;29;20080;-71
2022/08/11 03:36:45;;;;;;;10.32;6.43;;;;;;;;;;4968155;28;20009;-73
2022/08/11 03:39:20;;;;;;;11.90;6.50;;;;;;;;;;4993082;28;20030;-71
2022/08/11 03:41:55;;;;;;;14.32;6.28;;;;;;;;;;4989337;28;20047;-70
2022/08/11 03:44:24;;;;;;;13.10;6.00;;;;;;;;;;4979091;28;20030;-71
2022/08/11 03:47:08;;;;;;;15.35;6.15;;;;;;;;;;4988590;28;20042;-70
2022/08/11 03:49:38;;;;;;;23.67;6.22;;;;;;;;;;4985590;28;20023;-72
2022/08/11 03:52:22;;;;;;;14.77;5.75;;;;;;;;;;4991949;28;20055;-70
2022/08/11 03:55:09;;;;;;;19.23;6.28;;;;;;;;;;5056201;28;20119;-71
2022/08/11 03:57:44;;;;;;;12.48;5.45;;;;;;;;;;5069796;28;20027;-70
2022/08/11 04:00:18;;;;;;;11.20;5.40;;;;;;;;;;5074763;28;20025;-71
2022/08/11 04:03:03;;;;;;;12.32;5.10;;;;;;;;;;5058455;28;20100;-71
2022/08/11 04:05:32;;;;;;;8.38;5.03;;;;;;;;;;5075216;28;20025;-71
2022/08/11 04:08:20;;;;;;;9.27;4.63;;;;;;;;;;5064311;28;20033;-70
2022/08/11 04:11:05;;;;;;;10.10;5.03;;;;;;;;;;5061944;28;20044;-72
2022/08/11 04:17:01;;;;;;;9.48;5.43;;;;;;;;;;5072270;28;20444;-73
2022/08/11 04:19:33;;;;;;;8.52;4.60;;;;;;;;;;5061439;28;20054;-70
2022/08/11 04:22:06;;;;;;;8.02;4.97;;;;;;;;;;5067100;28;20047;-72
2022/08/11 04:24:38;;;;;;;26.70;6.17;;;;;;;;;;5063488;28;20185;-70
2022/08/11 04:27:13;;;;;;;19.88;5.65;;;;;;;;;;5085023;28;20493;-71
2022/08/11 04:29:49;;;;;;;21.20;5.97;;;;;;;;;;5078912;28;20089;-70
2022/08/11 04:32:27;;;;;;;12.38;5.43;;;;;;;;;;5074415;28;20051;-70
2022/08/11 04:35:12;;;;;;;11.52;4.72;;;;;;;;;;5084073;28;20037;-71
2022/08/11 04:37:47;;;;;;;11.10;4.97;;;;;;;;;;5086278;28;20054;-71
2022/08/11 04:40:32;;;;;;;9.57;4.95;;;;;;;;;;5078480;28;20043;-70
2022/08/11 04:43:19;;;;;;;8.88;5.15;;;;;;;;;;5085281;28;20427;-70
2022/08/11 04:46:05;;;;;;;10.50;5.20;;;;;;;;;;5079562;28;20025;-69
2022/08/11 05:02:48;;;;;;;13.52;4.72;;;;;;;;;;5083873;28;20043;-75
2022/08/11 05:05:29;;;;;;;7.70;4.38;;;;;;;;;;5078474;28;20044;-77
2022/08/11 05:08:14;;;;;;;12.32;4.93;;;;;;;;;;5078131;28;20039;-68
2022/08/11 05:11:00;;;;;;;17.55;5.75;;;;;;;;;;5087109;22;20371;-69
2022/08/11 05:36:11;;;;;;;9.35;4.85;;;;;;;;;;5071407;28;20085;-77
2022/08/11 05:58:05;;;;;;;8.75;3.67;;;;;;;;;;5069071;28;20043;-74
2022/08/11 06:00:33;;;;;;;28.73;4.55;;;;;;;;;;5075182;28;20104;-71
2022/08/11 06:03:02;;;;;;;10.73;4.00;;;;;;;;;;5074058;28;20050;-76
2022/08/11 06:05:36;;;;;;;6.28;3.67;;;;;;;;;;5074613;28;20025;-78
2022/08/11 06:08:02;;;;;;;5.53;3.60;;;;;;;;;;5094631;28;20028;-78
2022/08/11 06:10:33;;;;;;;7.03;3.83;;;;;;;;;;5073546;28;20056;-76
2022/08/11 06:12:59;;;;;;;4.78;3.50;;;;;;;;;;5056740;28;20033;-79
2022/08/11 06:15:26;;;;;;;7.45;3.50;;;;;;;;;;5054489;28;20025;-74
2022/08/11 06:17:54;;;;;;;6.38;3.42;;;;;;;;;;5052727;28;20029;-76
2022/08/11 06:20:22;;;;;;;5.30;3.30;;;;;;;;;;5034521;28;20390;-80
2022/08/11 06:22:55;;;;;;;6.57;3.53;;;;;;;;;;5035523;28;20021;-79
2022/08/11 06:25:22;;;;;;;5.43;3.50;;;;;;;;;;5054380;28;20091;-76
2022/08/11 06:27:55;;;;;;;5.30;3.35;;;;;;;;;;5052870;28;20029;-88
2022/08/11 06:30:32;;;;;;;7.32;3.58;;;;;;;;;;5067848;28;20452;-82
2022/08/11 06:33:00;;;;;;;7.38;3.60;;;;;;;;;;5054686;28;20056;-79
2022/08/11 06:35:47;;;;;;;10.25;4.00;;;;;;;;;;5054306;28;20079;-80
2022/08/11 06:38:22;;;;;;;9.70;3.70;;;;;;;;;;5053578;28;20024;-79
2022/08/11 06:43:51;;;;;;;7.80;3.85;;;;;;;;;;5055704;28;20155;-78
2022/08/11 06:46:22;;;;;;;13.88;4.20;;;;;;;;;;5037458;28;20112;-75
2022/08/11 06:48:49;;;;;;;7.68;3.90;;;;;;;;;;5045656;28;20107;-72
2022/08/11 06:51:15;;;;;;;8.00;4.30;;;;;;;;;;5051524;28;20103;-74
2022/08/11 06:53:44;;;;;;;8.20;4.00;;;;;;;;;;5052491;28;20497;-77
2022/08/11 07:02:02;;;;;;;7.65;3.75;;;;;;;;;;5055355;28;20077;-74
2022/08/11 07:04:35;;;;;;;13.55;6.32;;;;;;;;;;5060860;28;20107;-72
2022/08/11 07:15:41;;;;;;;42.22;5.53;;;;;;;;;;5064482;28;20087;-67
2022/08/11 07:29:12;;;;;;;8.60;3.90;;;;;;;;;;5010772;28;20044;-72
2022/08/11 07:31:43;;;;;;;5.53;3.88;;;;;;;;;;5011658;28;20050;-68
2022/08/11 07:34:17;;;;;;;11.77;4.38;;;;;;;;;;5011485;28;20026;-83
2022/08/11 07:36:47;;;;;;;6.47;4.13;;;;;;;;;;4998288;28;20032;-80
2022/08/11 07:39:20;;;;;;;7.53;4.15;;;;;;;;;;5011444;28;20538;-79
2022/08/11 07:41:47;;;;;;;7.53;4.00;;;;;;;;;;5011171;28;20072;-75
2022/08/11 07:44:15;;;;;;;10.50;4.35;;;;;;;;;;5011917;28;20526;-83
2022/08/11 07:55:06;;;;;;;8.88;3.40;;;;;;;;;;5011765;28;20112;-81
2022/08/11 08:19:36;;;;;;;6.93;3.30;;;;;;;;;;5058071;28;20087;-83
2022/08/11 08:22:03;;;;;;;16.35;3.70;;;;;;;;;;5046109;28;20021;-81
2022/08/11 08:24:29;;;;;;;9.80;3.60;;;;;;;;;;5055732;28;20021;-78
2022/08/11 08:26:59;;;;;;;9.90;3.55;;;;;;;;;;5056578;28;20028;-78
2022/08/11 08:32:12;;;;;;;12.23;3.90;;;;;;;;;;5052123;28;20139;-82
2022/08/11 08:34:39;;;;;;;7.45;2.72;;;;;;;;;;5060525;28;20045;-80
2022/08/11 08:37:06;;;;;;;11.68;3.17;;;;;;;;;;5059196;28;20394;-82
2022/08/11 08:39:33;;;;;;;12.18;3.58;;;;;;;;;;5054300;28;20021;-74
2022/08/11 08:42:01;;;;;;;17.40;4.03;;;;;;;;;;5056653;28;20035;-84
2022/08/11 08:44:27;;;;;;;11.98;3.80;;;;;;;;;;5049374;28;20064;-86
2022/08/11 08:46:55;;;;;;;9.48;3.42;;;;;;;;;;5054286;28;20148;-83
2022/08/11 08:49:34;;;;;;;10.80;3.25;;;;;;;;;;5060084;28;20044;-89
2022/08/11 08:52:02;;;;;;;9.63;3.72;;;;;;;;;;5052155;28;20479;-86
2022/08/11 08:54:32;;;;;;;10.90;3.55;;;;;;;;;;5052391;28;20478;-90
2022/08/11 08:57:03;;;;;;;13.40;3.88;;;;;;;;;;5052524;28;20100;-88
2022/08/11 08:59:31;;;;;;;15.75;4.13;;;;;;;;;;5052589;28;20475;-79
2022/08/11 09:01:59;;;;;;;15.68;4.15;;;;;;;;;;5052229;28;20029;-85
2022/08/11 09:04:26;;;;;;;13.65;4.05;;;;;;;;;;5052723;28;20033;-76
2022/08/11 09:06:53;;;;;;;11.75;4.13;;;;;;;;;;5057897;28;20051;-85
2022/08/11 09:09:22;;;;;;;7.13;3.47;;;;;;;;;;5068136;28;20079;-89
2022/08/11 09:11:48;;;;;;;56.67;7.20;;;;;;;;;;5055423;28;20060;-82
2022/08/11 09:14:15;;;;;;;21.00;3.95;;;;;;;;;;5060698;28;20534;-85
2022/08/11 09:16:43;;;;;;;11.68;3.65;;;;;;;;;;5054816;28;20029;-71
2022/08/11 09:19:09;;;;;;;18.33;3.72;;;;;;;;;;5068321;28;20473;-75
2022/08/11 09:21:40;;;;;;;13.10;4.60;;;;;;;;;;5059811;28;20021;-83
2022/08/11 09:27:02;;;;;;;9.38;3.40;;;;;;;;;;5052575;28;20031;-85
2022/08/11 09:29:29;;;;;;;66.75;10.85;;;;;;;;;;5043421;28;20436;-80
2022/08/11 09:31:57;;;;;;;47.25;8.77;;;;;;;;;;5053576;28;20025;-82
2022/08/11 09:34:25;;;;;;;9.85;3.33;;;;;;;;;;5045805;28;20033;-77
2022/08/11 09:44:45;;;;;;;9.25;3.20;;;;;;;;;;5065009;28;20058;-79
2022/08/11 09:45:10;;;;;;;5.65;3.08;;;;;;;;;;5053277;28;20044;-78
2022/08/11 09:47:37;;;;;;;7.55;3.63;;;;;;;;;;5054856;28;20147;-77
2022/08/11 09:50:05;;;;;;;17.73;4.00;;;;;;;;;;5067207;28;20031;-85
2022/08/11 09:52:35;;;;;;;9.60;3.20;;;;;;;;;;5065170;28;20044;-80
2022/08/11 09:55:05;;;;;;;11.88;3.15;;;;;;;;;;5055755;28;20549;-83
2022/08/11 10:00:16;;;;;;;13.65;3.58;;;;;;;;;;5055368;28;20103;-80
2022/08/11 10:02:43;;;;;;;10.07;3.22;;;;;;;;;;5055015;28;20486;-78
2022/08/11 10:07:56;;;;;;;18.60;4.07;;;;;;;;;;5059567;28;20398;-81
2022/08/11 10:10:22;;;;;;;4.88;2.78;;;;;;;;;;5065034;28;20108;-75
2022/08/11 10:12:56;;;;;;;9.73;2.97;;;;;;;;;;5039927;28;20051;-82
2022/08/11 10:15:35;;;;;;;8.13;3.25;;;;;;;;;;5031581;28;20021;-84
2022/08/11 10:20:53;;;;;;;7.22;2.90;;;;;;;;;;5044325;28;20064;-76
2022/08/11 10:28:52;;;;;;;4.05;2.92;;;;;;;;;;5034315;28;20082;-67
2022/08/11 10:34:08;;;;;;;9.50;2.97;;;;;;;;;;5036727;28;19924;-70
2022/08/11 10:36:47;;;;;;;4.57;2.95;;;;;;;;;;5034488;28;20018;-81
2022/08/11 10:39:15;;;;;;;6.05;2.70;;;;;;;;;;5033852;28;20045;-87
2022/08/11 10:44:27;;;;;;;5.38;2.40;;;;;;;;;;5034494;28;20052;-81
2022/08/11 10:49:37;;;;;;;4.63;2.53;;;;;;;;;;5034121;28;20045;-77
2022/08/11 11:00:18;;;;;;;6.63;2.20;;;;;;;;;;5043052;28;20044;-86
2022/08/11 11:02:45;;;;;;;4.22;2.30;;;;;;;;;;5035854;28;20032;-84
2022/08/11 11:05:43;;;;;;;3.85;2.20;;;;;;;;;;5040853;28;20021;-77
2022/08/11 11:08:51;;;;;;;9.88;2.30;;;;;;;;;;4989640;28;20042;-85
2022/08/11 11:10:57;;;;;;;8.43;5.50;;;;;;;;;;4985068;28;20075;-82
2022/08/11 11:18:50;;;;;;;9.18;3.13;;;;;;;;;;5025299;28;20036;-89
2022/08/11 11:21:19;;;;;;;5.45;2.17;;;;;;;;;;5024683;28;20033;-85
2022/08/11 11:23:48;;;;;;;5.70;2.20;;;;;;;;;;5020394;28;20120;-85
2022/08/11 11:26:18;;;;;;;25.55;3.63;;;;;;;;;;5022526;28;20044;-81
2022/08/11 11:28:45;;;;;;;4.20;2.33;;;;;;;;;;5030289;28;20096;-80
2022/08/11 11:31:30;;;;;;;3.75;1.90;;;;;;;;;;5028605;28;20033;-82
2022/08/11 11:34:25;;;;;;;5.75;1.95;;;;;;;;;;5011828;28;20180;-72
2022/08/11 11:36:54;;;;;;;3.38;1.70;;;;;;;;;;4933586;29;20114;-78
2022/08/11 11:39:21;;;;;;;3.22;1.90;;;;;;;;;;4934608;29;20525;-88
2022/08/11 11:41:49;;;;;;;4.72;1.88;;;;;;;;;;4931673;29;20545;-80
2022/08/11 11:44:15;;;;;;;3.97;2.15;;;;;;;;;;4960265;28;20112;-84
2022/08/11 11:46:44;;;;;;;9.77;2.10;;;;;;;;;;4974166;28;20179;-84
2022/08/11 11:49:10;;;;;;;5.55;2.00;;;;;;;;;;4952399;28;20143;-82
2022/08/11 11:51:37;;;;;;;5.20;2.03;;;;;;;;;;4972692;28;20027;-85
2022/08/11 11:54:04;;;;;;;6.75;2.03;;;;;;;;;;4974573;28;20094;-85
2022/08/11 11:56:31;;;;;;;3.13;1.88;;;;;;;;;;4974726;28;20031;-87
2022/08/11 12:01:42;;;;;;;2.53;2.00;;;;;;;;;;4967886;28;20046;-85
2022/08/11 12:04:09;;;;;;;2.45;1.80;;;;;;;;;;4959080;28;20015;-90
2022/08/11 12:06:36;;;;;;;3.88;1.90;;;;;;;;;;4972367;28;20104;-83
2022/08/11 12:09:02;;;;;;;2.47;2.00;;;;;;;;;;4975701;28;20063;-82
2022/08/11 12:14:15;;;;;;;3.33;2.45;;;;;;;;;;5025493;28;20056;-79
2022/08/11 12:16:44;;;;;;;6.53;2.70;;;;;;;;;;5014522;28;20029;-86
2022/08/11 12:19:14;;;;;;;4.13;2.20;;;;;;;;;;5039410;28;20076;-82
2022/08/11 12:27:22;;;;;;;3.72;2.50;;;;;;;;;;5030338;28;20036;-79
2022/08/11 12:29:49;;;;;;;5.03;3.20;;;;;;;;;;5039933;28;20040;-72
2022/08/11 12:32:16;;;;;;;16.15;3.17;;;;;;;;;;5044588;28;20175;-71
2022/08/11 12:34:42;;;;;;;3.30;2.38;;;;;;;;;;5023907;28;20014;-90
2022/08/11 12:37:12;;;;;;;3.28;1.90;;;;;;;;;;5038117;28;20029;-70
2022/08/11 12:45:28;;;;;;;2.42;1.73;;;;;;;;;;5032666;28;20075;-83
2022/08/11 12:53:33;;;;;;;1.75;1.60;;;;;;;;;;5032425;28;20076;-85
2022/08/11 12:58:48;;;;;;;3.75;1.70;;;;;;;;;;5026515;28;20040;-81
2022/08/11 13:06:45;;;;;;;16.38;2.92;;;;;;;;;;5030453;28;20114;-82
2022/08/11 13:09:11;;;;;;;9.50;2.08;;;;;;;;;;5029676;28;20030;-80
2022/08/11 13:14:24;;;;;;;5.90;1.90;;;;;;;;;;5028244;28;20613;-80
2022/08/11 13:19:35;;;;;;;5.18;1.80;;;;;;;;;;5049409;28;20044;-80
2022/08/11 13:22:06;;;;;;;5.28;1.63;;;;;;;;;;5063790;28;20027;-86
2022/08/11 13:24:35;;;;;;;24.52;3.00;;;;;;;;;;5073252;28;20086;-94
2022/08/11 13:27:02;;;;;;;8.60;2.50;;;;;;;;;;5047974;28;20025;-86
2022/08/11 13:29:28;;;;;;;5.60;2.70;;;;;;;;;;5071961;28;20090;-89
2022/08/11 13:31:58;;;;;;;12.07;3.20;;;;;;;;;;5047256;28;20031;-86
2022/08/11 13:34:26;;;;;;;8.07;2.35;;;;;;;;;;5070558;28;20035;-87
2022/08/11 13:36:53;;;;;;;4.07;2.00;;;;;;;;;;5059308;28;20027;-87
2022/08/11 13:39:24;;;;;;;7.28;2.25;;;;;;;;;;5063015;28;20531;-86
2022/08/11 13:41:50;;;;;;;4.47;1.90;;;;;;;;;;5048174;28;20047;-88
2022/08/11 13:44:17;;;;;;;16.38;3.08;;;;;;;;;;5032692;28;20068;-84
2022/08/11 13:46:43;;;;;;;3.83;1.90;;;;;;;;;;5064055;28;20025;-91
2022/08/11 13:49:10;;;;;;;3.42;2.00;;;;;;;;;;5037854;28;20032;-84
2022/08/11 13:51:38;;;;;;;2.13;1.75;;;;;;;;;;5064695;28;20086;-83
2022/08/11 13:54:17;;;;;;;10.57;3.03;;;;;;;;;;5059257;28;20029;-88
2022/08/11 13:56:45;;;;;;;4.68;3.00;;;;;;;;;;5062480;28;20074;-75
2022/08/11 13:59:12;;;;;;;6.85;3.10;;;;;;;;;;5055959;28;20024;-73
2022/08/11 14:01:40;;;;;;;3.28;2.00;;;;;;;;;;5051726;28;20500;-85
2022/08/11 14:04:12;;;;;;;5.80;2.00;;;;;;;;;;5030127;28;20420;-67
2022/08/11 14:06:41;;;;;;;4.03;1.88;;;;;;;;;;5041935;28;20029;-72
2022/08/11 14:09:09;;;;;;;5.68;1.88;;;;;;;;;;5062552;28;20498;-68
2022/08/11 14:14:25;;;;;;;16.05;2.72;;;;;;;;;;5060063;28;20070;-68
2022/08/11 14:16:53;;;;;;;2.88;1.63;;;;;;;;;;5054488;28;20051;-75
2022/08/11 14:19:22;;;;;;;4.43;1.95;;;;;;;;;;5064053;28;20485;-71
2022/08/11 14:22:08;;;;;;;3.22;2.13;;;;;;;;;;5050258;28;20063;-74
2022/08/11 14:24:39;;;;;;;5.88;2.30;;;;;;;;;;5065873;28;20021;-70
2022/08/11 14:27:06;;;;;;;9.32;2.08;;;;;;;;;;5060348;28;20133;-86
2022/08/11 14:29:37;;;;;;;3.95;2.20;;;;;;;;;;5051269;28;20029;-79
2022/08/11 14:32:04;;;;;;;10.18;2.30;;;;;;;;;;5053554;28;20104;-69
2022/08/11 14:34:33;;;;;;;2.25;1.73;;;;;;;;;;5055870;28;20035;-68
2022/08/11 14:37:00;;;;;;;3.42;1.80;;;;;;;;;;5050248;28;20076;-80
2022/08/11 14:39:28;;;;;;;7.85;2.38;;;;;;;;;;5054383;28;20028;-67
2022/08/11 14:47:37;;;;;;;3.53;2.00;;;;;;;;;;5059851;28;20047;-80
2022/08/11 14:50:05;;;;;;;3.33;1.90;;;;;;;;;;5056351;28;20017;-76
2022/08/11 14:52:32;;;;;;;4.45;1.77;;;;;;;;;;5055368;28;20184;-90
2022/08/11 14:57:43;;;;;;;14.35;7.63;;;;;;;;;;5045166;28;20044;-84
2022/08/11 15:00:14;;;;;;;8.00;5.38;;;;;;;;;;5055403;28;20025;-87
2022/08/11 15:05:26;;;;;;;7.93;4.13;;;;;;;;;;5054657;28;20094;-76
2022/08/11 15:07:54;;;;;;;6.32;4.53;;;;;;;;;;5054876;28;20072;-85
2022/08/11 15:10:20;;;;;;;18.27;4.75;;;;;;;;;;5054309;28;20032;-82
2022/08/11 15:12:47;;;;;;;21.23;3.72;;;;;;;;;;5054775;28;20033;-72
2022/08/11 15:17:59;;;;;;;10.02;3.30;;;;;;;;;;5028303;28;20477;-73
2022/08/11 15:26:09;;;;;;;8.18;2.10;;;;;;;;;;5045470;28;20028;-69
2022/08/11 15:45:46;;;;;;;4.15;2.20;;;;;;;;;;5038596;28;20040;-68
2022/08/11 15:47:56;;;;;;;6.63;2.22;;;;;;;;;;5054189;28;20047;-69
2022/08/11 15:50:24;;;;;;;1.88;1.70;;;;;;;;;;5038540;28;20033;-90
2022/08/11 15:52:55;;;;;;;6.88;3.20;;;;;;;;;;5052950;28;20036;-71
2022/08/11 15:55:22;;;;;;;6.40;3.30;;;;;;;;;;5053450;28;20086;-70
2022/08/11 16:06:08;;;;;;;6.50;2.13;;;;;;;;;;5053227;28;20107;-69
2022/08/11 16:08:35;;;;;;;4.03;2.45;;;;;;;;;;5053480;28;20103;-87
2022/08/11 16:11:01;;;;;;;3.03;2.40;;;;;;;;;;5029482;28;20046;-68
2022/08/11 16:16:15;;;;;;;5.68;3.47;;;;;;;;;;5034166;28;20025;-68
2022/08/11 16:18:42;;;;;;;4.07;3.05;;;;;;;;;;5030066;28;20051;-68
2022/08/11 16:21:09;;;;;;;6.80;2.85;;;;;;;;;;5030409;28;20022;-68
2022/08/11 16:23:38;;;;;;;7.35;2.85;;;;;;;;;;5023288;28;20467;-68
2022/08/11 16:26:05;;;;;;;9.77;2.70;;;;;;;;;;5052217;28;20029;-68
2022/08/11 16:28:33;;;;;;;5.88;2.22;;;;;;;;;;5026054;28;20540;-69
2022/08/11 16:31:00;;;;;;;13.65;2.30;;;;;;;;;;5030713;28;20391;-75
2022/08/11 16:33:27;;;;;;;4.68;2.40;;;;;;;;;;5052586;28;20100;-68
2022/08/11 16:38:39;;;;;;;4.75;2.33;;;;;;;;;;5044207;28;20545;-70
2022/08/11 16:41:10;;;;;;;8.52;2.22;;;;;;;;;;5030482;28;20034;-69
2022/08/11 16:49:13;;;;;;;6.55;2.40;;;;;;;;;;5041866;28;20092;-73
2022/08/11 16:51:39;;;;;;;8.23;2.15;;;;;;;;;;5030766;28;20022;-72
2022/08/11 16:54:06;;;;;;;5.75;2.30;;;;;;;;;;5037799;28;20041;-70
2022/08/11 16:56:35;;;;;;;5.97;2.30;;;;;;;;;;5031128;28;20104;-78
2022/08/11 16:59:15;;;;;;;7.60;3.88;;;;;;;;;;5032221;28;20029;-70
2022/08/11 17:01:43;;;;;;;6.22;3.42;;;;;;;;;;5018601;28;20017;-73
2022/08/11 17:18:10;;;;;;;6.63;2.47;;;;;;;;;;5026889;28;20559;-67
2022/08/11 17:20:37;;;;;;;5.53;2.50;;;;;;;;;;5020966;28;20390;-69
2022/08/11 17:25:50;;;;;;;3.35;2.20;;;;;;;;;;5031995;28;20033;-69
2022/08/11 17:28:18;;;;;;;6.05;2.40;;;;;;;;;;5055397;28;20025;-72
2022/08/11 17:36:26;;;;;;;10.82;2.78;;;;;;;;;;4971359;28;20050;-70
2022/08/11 17:38:52;;;;;;;7.60;2.38;;;;;;;;;;4972889;28;20042;-81
2022/08/11 17:49:36;;;;;;;4.82;2.10;;;;;;;;;;4973392;28;20109;-81
2022/08/11 18:00:18;;;;;;;8.05;2.35;;;;;;;;;;4974329;28;20097;-68
2022/08/11 18:05:32;;;;;;;8.60;2.70;;;;;;;;;;4971265;28;20034;-71
